Time;durP1;ratioP1;P1;durP2;ratioP2;P2;SDS_P1;SDS_P2;PMS_P1;PMS_P2;Temp;Humidity;BMP_temperature;BMP_pressure;BME280_temperature;BME280_humidity;BME280_pressure;Samples;Min_cycle;Max_cycle;Signal;HPM_P1;HPM_P2
2022/08/14 00:01:30;;;;;;;7.18;4.78;;;22.90;68.20;;;;;;5050801;28;20123;-50
2022/08/14 00:03:57;;;;;;;6.75;5.05;;;22.80;67.40;;;;;;5031240;28;20096;-47
2022/08/14 00:06:24;;;;;;;10.43;5.63;;;22.80;67.60;;;;;;5032100;28;20116;-50
2022/08/14 00:08:51;;;;;;;9.50;5.53;;;22.80;68.10;;;;;;5051043;28;20508;-52
2022/08/14 00:11:17;;;;;;;7.57;5.60;;;22.70;68.20;;;;;;5033033;28;20460;-48
2022/08/14 00:13:44;;;;;;;6.15;5.25;;;22.70;68.10;;;;;;5051372;28;20454;-51
2022/08/14 00:16:13;;;;;;;7.47;5.72;;;22.70;68.10;;;;;;5049963;28;20048;-48
2022/08/14 00:18:40;;;;;;;9.65;5.97;;;22.70;68.10;;;;;;5052208;28;20088;-48
2022/08/14 00:21:07;;;;;;;8.45;5.03;;;22.60;69.00;;;;;;5051252;28;20463;-49
2022/08/14 00:23:34;;;;;;;5.75;5.25;;;22.60;68.90;;;;;;5034103;28;20401;-52
2022/08/14 00:26:01;;;;;;;8.18;5.82;;;22.60;68.40;;;;;;5049817;28;20584;-46
2022/08/14 00:28:27;;;;;;;7.60;5.15;;;22.60;68.50;;;;;;5031441;28;20132;-44
2022/08/14 00:30:56;;;;;;;8.50;6.63;;;22.60;68.50;;;;;;5049906;28;20128;-49
2022/08/14 00:33:24;;;;;;;6.65;5.53;;;22.50;69.10;;;;;;5033303;28;20056;-51
2022/08/14 00:35:54;;;;;;;6.82;6.13;;;22.50;68.90;;;;;;5051024;28;20136;-49
2022/08/14 00:38:21;;;;;;;8.43;5.00;;;22.50;69.40;;;;;;5050687;28;20099;-47
2022/08/14 00:40:48;;;;;;;8.38;5.72;;;22.40;68.80;;;;;;5050777;28;20052;-48
2022/08/14 00:43:15;;;;;;;8.15;6.82;;;22.40;68.90;;;;;;5034439;28;20056;-46
2022/08/14 00:45:42;;;;;;;7.10;6.00;;;22.30;69.90;;;;;;5031793;28;20080;-49
2022/08/14 00:48:09;;;;;;;5.97;5.38;;;22.30;70.00;;;;;;5051193;28;20416;-46
2022/08/14 00:50:37;;;;;;;6.68;5.47;;;22.30;69.40;;;;;;5050250;28;20041;-49
2022/08/14 00:53:06;;;;;;;7.63;5.75;;;22.30;69.20;;;;;;5034477;28;20464;-49
2022/08/14 00:55:32;;;;;;;9.20;6.68;;;22.20;69.60;;;;;;5049436;28;20053;-46
2022/08/14 01:00:55;;;;;;;7.10;5.00;;;22.20;69.90;;;;;;5009171;28;20046;-47
2022/08/14 01:03:22;;;;;;;6.97;6.28;;;22.10;69.60;;;;;;5027223;28;20080;-48
2022/08/14 01:05:51;;;;;;;8.90;5.47;;;22.10;70.30;;;;;;5054685;28;20437;-50
2022/08/14 01:08:19;;;;;;;7.00;6.30;;;22.10;70.00;;;;;;5053880;28;20045;-50
2022/08/14 01:10:52;;;;;;;7.85;6.10;;;22.10;70.10;;;;;;5036364;28;20072;-47
2022/08/14 01:13:20;;;;;;;10.20;5.75;;;22.00;70.00;;;;;;5053455;28;20040;-48
2022/08/14 01:15:47;;;;;;;7.78;6.13;;;22.00;70.10;;;;;;5053105;28;20138;-49
2022/08/14 01:21:03;;;;;;;9.52;5.30;;;21.90;70.40;;;;;;5054861;28;20470;-49
2022/08/14 01:23:31;;;;;;;7.10;6.38;;;22.00;70.20;;;;;;5054998;28;20068;-51
2022/08/14 01:25:58;;;;;;;7.93;6.20;;;21.90;70.50;;;;;;5051825;28;20874;-37
2022/08/14 01:28:26;;;;;;;7.65;6.63;;;21.90;70.90;;;;;;5050491;28;20055;-48
2022/08/14 01:30:54;;;;;;;9.52;6.93;;;21.80;70.60;;;;;;5053458;28;20520;-50
2022/08/14 01:33:22;;;;;;;9.63;6.82;;;21.80;71.10;;;;;;5036027;28;20110;-48
2022/08/14 01:35:48;;;;;;;9.10;6.38;;;21.80;71.50;;;;;;5054387;28;20044;-51
2022/08/14 01:38:15;;;;;;;6.90;6.05;;;21.70;71.30;;;;;;5053667;28;20076;-52
2022/08/14 01:40:46;;;;;;;7.88;6.72;;;21.70;71.30;;;;;;5053245;28;20120;-45
2022/08/14 01:43:14;;;;;;;11.48;6.43;;;21.70;71.40;;;;;;5036423;28;20053;-44
2022/08/14 01:45:41;;;;;;;9.75;6.60;;;21.70;70.90;;;;;;5052410;28;20546;-46
2022/08/14 01:48:08;;;;;;;7.90;6.60;;;21.60;71.20;;;;;;5053657;28;20132;-50
2022/08/14 01:50:35;;;;;;;9.48;7.03;;;21.60;71.00;;;;;;5052893;28;20064;-45
2022/08/14 01:53:02;;;;;;;7.03;6.13;;;21.60;71.50;;;;;;5053172;28;20053;-48
2022/08/14 01:55:31;;;;;;;8.73;7.20;;;21.60;71.60;;;;;;5034316;28;20131;-45
2022/08/14 01:57:59;;;;;;;9.57;6.72;;;21.60;72.10;;;;;;5053672;28;20048;-49
2022/08/14 02:00:25;;;;;;;9.13;6.70;;;21.50;72.20;;;;;;5051788;28;20051;-52
2022/08/14 02:02:52;;;;;;;10.95;7.07;;;21.50;72.10;;;;;;5052079;28;20084;-49
2022/08/14 02:05:20;;;;;;;8.93;6.38;;;21.50;72.30;;;;;;5034720;28;20049;-49
2022/08/14 02:07:46;;;;;;;7.07;6.38;;;21.40;71.90;;;;;;5033849;28;20060;-41
2022/08/14 02:10:13;;;;;;;7.38;6.10;;;21.40;72.00;;;;;;5052604;28;20130;-46
2022/08/14 02:12:45;;;;;;;8.75;6.40;;;21.40;71.80;;;;;;5053152;28;20087;-51
2022/08/14 02:15:13;;;;;;;11.07;7.47;;;21.40;71.70;;;;;;5053415;28;20063;-51
2022/08/14 02:17:40;;;;;;;8.05;6.93;;;21.30;72.70;;;;;;5053077;28;20102;-49
2022/08/14 02:20:07;;;;;;;11.10;8.25;;;21.30;72.90;;;;;;5051685;28;20128;-51
2022/08/14 02:22:34;;;;;;;9.63;7.28;;;21.30;73.90;;;;;;5036097;28;20132;-46
2022/08/14 02:25:01;;;;;;;9.10;7.53;;;21.20;73.60;;;;;;5052477;28;20041;-49
2022/08/14 02:27:29;;;;;;;8.27;7.47;;;21.20;74.30;;;;;;5052936;28;20045;-49
2022/08/14 02:29:55;;;;;;;8.45;7.30;;;21.10;74.10;;;;;;5053299;28;20135;-49
2022/08/14 02:32:24;;;;;;;8.15;7.20;;;21.10;74.50;;;;;;5053968;28;20120;-50
2022/08/14 02:34:50;;;;;;;11.20;8.00;;;21.10;74.30;;;;;;5034096;28;20543;-50
2022/08/14 02:37:17;;;;;;;12.20;7.85;;;21.00;74.60;;;;;;5033918;28;20136;-49
2022/08/14 02:39:45;;;;;;;10.45;7.18;;;21.00;75.30;;;;;;5035262;28;20140;-51
2022/08/14 02:42:13;;;;;;;11.02;7.78;;;21.00;75.00;;;;;;5053640;28;20118;-50
2022/08/14 02:44:41;;;;;;;10.57;7.95;;;21.00;74.90;;;;;;5049282;28;20521;-47
2022/08/14 02:47:08;;;;;;;12.55;7.65;;;21.00;75.30;;;;;;5034218;28;20481;-49
2022/08/14 02:49:36;;;;;;;11.48;7.85;;;21.00;75.10;;;;;;5052326;28;20135;-50
2022/08/14 02:52:06;;;;;;;8.57;7.53;;;20.90;75.30;;;;;;5052414;28;20060;-52
2022/08/14 02:54:33;;;;;;;10.02;7.72;;;20.90;75.30;;;;;;5053040;28;20052;-49
2022/08/14 02:56:59;;;;;;;11.82;8.48;;;20.90;75.40;;;;;;5052615;28;20052;-47
2022/08/14 02:59:28;;;;;;;10.43;8.32;;;20.90;76.40;;;;;;5052792;28;20455;-46
2022/08/14 03:01:56;;;;;;;8.18;7.35;;;20.80;76.90;;;;;;5053282;28;20049;-50
2022/08/14 03:04:23;;;;;;;10.35;8.60;;;20.80;77.20;;;;;;5034258;28;20408;-51
2022/08/14 03:06:51;;;;;;;12.38;9.20;;;20.70;77.10;;;;;;5050675;28;20053;-47
2022/08/14 03:09:17;;;;;;;8.45;7.53;;;20.70;77.80;;;;;;5034583;28;20132;-51
2022/08/14 03:11:45;;;;;;;8.80;7.47;;;20.70;77.30;;;;;;5051058;28;20077;-50
2022/08/14 03:14:12;;;;;;;8.93;7.35;;;20.70;77.20;;;;;;5052097;28;20107;-45
2022/08/14 03:16:40;;;;;;;9.75;7.70;;;20.70;76.40;;;;;;5052081;28;20055;-50
2022/08/14 03:19:07;;;;;;;14.38;8.57;;;20.70;77.00;;;;;;5052201;28;20049;-50
2022/08/14 03:21:35;;;;;;;10.27;8.13;;;20.60;77.10;;;;;;5052102;28;20129;-51
2022/08/14 03:24:10;;;;;;;12.88;8.82;;;20.60;77.50;;;;;;5033378;28;20041;-52
2022/08/14 03:26:38;;;;;;;8.48;7.63;;;20.60;78.30;;;;;;5049414;28;20463;-48
2022/08/14 03:29:05;;;;;;;13.07;8.20;;;20.60;78.10;;;;;;5052301;28;20389;-51
2022/08/14 03:31:32;;;;;;;14.05;8.40;;;20.50;78.20;;;;;;5051692;28;20126;-50
2022/08/14 03:33:59;;;;;;;11.70;9.05;;;20.50;78.40;;;;;;5033752;28;20135;-48
2022/08/14 03:36:25;;;;;;;8.68;7.78;;;20.50;78.80;;;;;;5033623;28;20044;-49
2022/08/14 03:38:56;;;;;;;12.70;9.50;;;20.50;78.80;;;;;;5052473;28;20052;-47
2022/08/14 03:41:24;;;;;;;12.38;9.35;;;20.40;79.30;;;;;;5032449;28;20059;-50
2022/08/14 03:43:55;;;;;;;8.50;7.60;;;20.40;79.60;;;;;;5052032;28;20069;-48
2022/08/14 03:46:22;;;;;;;8.75;7.85;;;20.40;79.20;;;;;;5032329;28;20114;-46
2022/08/14 03:48:48;;;;;;;13.60;9.40;;;20.40;79.00;;;;;;5051774;28;20045;-46
2022/08/14 03:51:15;;;;;;;10.07;8.18;;;20.40;79.70;;;;;;5051010;28;20114;-50
2022/08/14 03:53:43;;;;;;;8.73;7.68;;;20.30;79.80;;;;;;5033918;28;20094;-50
2022/08/14 03:56:12;;;;;;;11.50;8.77;;;20.30;79.40;;;;;;5033044;28;20145;-49
2022/08/14 03:58:42;;;;;;;11.80;9.38;;;20.30;80.00;;;;;;5051961;28;20053;-49
2022/08/14 04:01:09;;;;;;;12.50;8.85;;;20.30;80.50;;;;;;5032825;28;20052;-45
2022/08/14 04:03:36;;;;;;;9.43;8.00;;;20.30;80.80;;;;;;5043711;28;20048;-45
2022/08/14 04:06:03;;;;;;;10.90;9.30;;;20.20;80.50;;;;;;5050909;28;20041;-51
2022/08/14 04:08:30;;;;;;;11.38;8.23;;;20.20;81.20;;;;;;5052423;28;20053;-51
2022/08/14 04:10:58;;;;;;;11.85;8.57;;;20.20;81.20;;;;;;5052236;28;20060;-46
2022/08/14 04:13:24;;;;;;;11.98;9.25;;;20.20;81.20;;;;;;5050625;28;20465;-48
2022/08/14 04:15:52;;;;;;;9.35;8.30;;;20.20;82.00;;;;;;5051585;28;20645;-47
2022/08/14 04:18:19;;;;;;;14.55;10.05;;;20.20;82.10;;;;;;5051389;28;20128;-51
2022/08/14 04:20:46;;;;;;;12.27;9.38;;;20.10;83.30;;;;;;5050681;28;20574;-47
2022/08/14 04:23:13;;;;;;;12.43;8.88;;;20.10;83.20;;;;;;5051495;28;20056;-51
2022/08/14 04:25:40;;;;;;;9.70;8.00;;;20.10;83.10;;;;;;5033038;28;20081;-46
2022/08/14 04:28:08;;;;;;;10.60;9.60;;;20.10;83.30;;;;;;5052284;28;20139;-50
2022/08/14 04:30:38;;;;;;;11.13;9.15;;;20.10;83.00;;;;;;5033277;28;20049;-51
2022/08/14 04:33:06;;;;;;;10.48;9.18;;;20.10;83.80;;;;;;5050184;28;20056;-46
2022/08/14 04:35:39;;;;;;;10.13;8.40;;;20.10;83.60;;;;;;5052406;28;20052;-42
2022/08/14 04:43:40;;;;;;;10.63;9.52;;;20.00;83.90;;;;;;4961402;28;20146;-48
2022/08/14 04:46:08;;;;;;;11.52;9.40;;;20.00;84.70;;;;;;5055271;28;20447;-44
2022/08/14 04:48:35;;;;;;;9.02;8.13;;;20.00;84.80;;;;;;5054856;28;20049;-45
2022/08/14 04:51:02;;;;;;;13.60;9.57;;;20.00;84.30;;;;;;5053999;28;20145;-48
2022/08/14 04:53:30;;;;;;;12.02;8.95;;;20.00;85.80;;;;;;5054093;28;20065;-50
2022/08/14 04:55:57;;;;;;;12.90;9.60;;;20.00;85.70;;;;;;5033828;28;20485;-51
2022/08/14 04:58:27;;;;;;;11.93;9.27;;;20.10;86.10;;;;;;5033725;28;20120;-51
2022/08/14 05:00:55;;;;;;;14.13;9.98;;;20.10;85.70;;;;;;5031411;28;20096;-48
2022/08/14 05:03:23;;;;;;;10.00;8.95;;;20.10;86.90;;;;;;5034524;28;20129;-50
2022/08/14 05:05:52;;;;;;;10.32;9.27;;;20.10;86.70;;;;;;5033489;28;20072;-50
2022/08/14 05:08:19;;;;;;;11.88;10.52;;;20.10;87.20;;;;;;5034074;28;20455;-40
2022/08/14 05:10:49;;;;;;;15.13;9.85;;;20.10;88.40;;;;;;5032698;28;20073;-48
2022/08/14 05:13:16;;;;;;;13.15;9.98;;;20.10;88.60;;;;;;5032093;28;20569;-51
2022/08/14 05:15:45;;;;;;;14.07;10.50;;;20.10;88.90;;;;;;5033467;28;20140;-51
2022/08/14 05:18:13;;;;;;;12.32;10.93;;;20.10;89.50;;;;;;5035068;28;20061;-50
2022/08/14 05:20:45;;;;;;;13.02;10.25;;;20.20;89.90;;;;;;5032963;28;20049;-48
2022/08/14 05:23:13;;;;;;;;;;;20.10;90.10;;;;;;5033704;28;20527;-51
2022/08/14 05:25:39;;;;;;;9.85;8.85;;;20.10;87.70;;;;;;5032532;28;19944;-51
2022/08/14 05:28:09;;;;;;;14.75;10.35;;;20.10;89.20;;;;;;5033508;28;20084;-48
2022/08/14 05:30:36;;;;;;;13.57;10.43;;;20.20;90.20;;;;;;5031762;28;20103;-51
2022/08/14 05:33:03;;;;;;;15.27;10.27;;;20.20;90.50;;;;;;5032428;28;20081;-46
2022/08/14 05:35:31;;;;;;;13.30;9.80;;;20.30;90.70;;;;;;5031808;28;20080;-47
2022/08/14 05:37:58;;;;;;;12.93;10.35;;;20.30;90.90;;;;;;5034602;28;20060;-49
2022/08/14 05:40:26;;;;;;;13.27;9.85;;;20.30;91.20;;;;;;5032615;28;20038;-49
2022/08/14 05:42:53;;;;;;;14.00;10.27;;;20.30;91.20;;;;;;5032769;28;20068;-48
2022/08/14 05:45:20;;;;;;;13.23;10.65;;;20.40;91.50;;;;;;5033729;28;20054;-48
2022/08/14 05:47:47;;;;;;;12.23;10.27;;;20.40;91.60;;;;;;5031742;28;20088;-38
2022/08/14 05:50:14;;;;;;;12.45;10.05;;;20.50;91.70;;;;;;5030954;28;20544;-48
2022/08/14 05:52:41;;;;;;;12.55;10.13;;;20.60;91.80;;;;;;5030811;28;20055;-49
2022/08/14 05:55:08;;;;;;;13.57;10.25;;;20.70;91.70;;;;;;5027515;28;20132;-48
2022/08/14 05:57:46;;;;;;;11.00;9.90;;;20.80;91.80;;;;;;5030266;28;20057;-50
2022/08/14 06:00:14;;;;;;;11.05;9.70;;;20.90;91.80;;;;;;5032573;28;20882;-49
2022/08/14 06:02:41;;;;;;;13.60;10.25;;;21.00;91.80;;;;;;5029264;28;20160;-51
2022/08/14 06:05:08;;;;;;;11.73;10.05;;;21.10;91.70;;;;;;5032052;28;20129;-49
2022/08/14 06:07:35;;;;;;;10.77;9.68;;;21.20;91.80;;;;;;5034090;28;20080;-45
2022/08/14 06:10:02;;;;;;;13.38;10.18;;;21.30;91.90;;;;;;5033169;28;20053;-49
2022/08/14 06:12:29;;;;;;;12.23;10.52;;;21.40;91.70;;;;;;5028903;28;20107;-47
2022/08/14 06:14:58;;;;;;;17.20;10.95;;;21.50;91.70;;;;;;5031352;28;20088;-46
2022/08/14 06:17:24;;;;;;;13.77;10.23;;;21.60;91.50;;;;;;5032219;28;20076;-49
2022/08/14 06:19:51;;;;;;;11.57;9.65;;;21.70;91.50;;;;;;5031683;28;20099;-50
2022/08/14 06:22:18;;;;;;;10.93;9.35;;;21.80;91.40;;;;;;5032154;28;20053;-51
2022/08/14 06:24:45;;;;;;;15.80;10.02;;;21.90;91.40;;;;;;5028655;28;20096;-48
2022/08/14 06:27:12;;;;;;;14.80;10.13;;;22.10;91.60;;;;;;5032225;28;20041;-48
2022/08/14 06:29:38;;;;;;;12.32;10.40;;;22.20;91.30;;;;;;5031798;28;20532;-51
2022/08/14 06:32:07;;;;;;;11.82;10.48;;;22.30;91.20;;;;;;5031572;28;20565;-49
2022/08/14 06:34:38;;;;;;;12.98;10.35;;;22.40;91.00;;;;;;5032841;28;20136;-47
2022/08/14 06:37:05;;;;;;;13.68;9.43;;;22.50;90.80;;;;;;5032682;28;20053;-50
2022/08/14 06:39:32;;;;;;;10.07;8.85;;;22.60;90.80;;;;;;5032308;28;20048;-46
2022/08/14 06:41:59;;;;;;;13.32;9.00;;;22.70;90.70;;;;;;5029980;28;20050;-47
2022/08/14 06:44:27;;;;;;;11.40;8.98;;;22.90;90.60;;;;;;5031905;28;20046;-51
2022/08/14 06:46:54;;;;;;;16.00;8.45;;;23.00;90.60;;;;;;5032986;28;20103;-51
2022/08/14 06:49:22;;;;;;;9.98;8.50;;;23.20;90.50;;;;;;5032529;28;20084;-46
2022/08/14 06:51:48;;;;;;;11.20;9.23;;;23.30;90.20;;;;;;5031567;28;20060;-37
2022/08/14 06:54:15;;;;;;;10.43;8.57;;;23.40;89.70;;;;;;5031685;28;20492;-49
2022/08/14 06:56:42;;;;;;;10.57;8.15;;;23.50;89.50;;;;;;5050485;28;20091;-47
2022/08/14 06:59:09;;;;;;;9.65;8.10;;;23.60;89.10;;;;;;5029273;28;20088;-49
2022/08/14 07:07:06;;;;;;;10.82;8.25;;;24.00;87.60;;;;;;5050318;28;20439;-49
2022/08/14 07:09:32;;;;;;;9.43;7.53;;;24.10;86.90;;;;;;5034093;28;20450;-50
2022/08/14 07:11:59;;;;;;;9.05;7.22;;;24.20;86.50;;;;;;5051162;28;20075;-47
2022/08/14 07:14:26;;;;;;;9.70;7.72;;;24.30;86.40;;;;;;5045177;28;20079;-45
2022/08/14 07:16:53;;;;;;;12.82;7.53;;;24.40;86.10;;;;;;5030043;28;20132;-42
2022/08/14 07:19:19;;;;;;;11.57;7.55;;;24.60;86.00;;;;;;5051891;28;20128;-47
2022/08/14 07:21:48;;;;;;;12.95;7.32;;;24.70;85.30;;;;;;5051169;28;20083;-45
2022/08/14 07:24:14;;;;;;;13.70;7.13;;;24.90;85.00;;;;;;5049030;28;20833;-47
2022/08/14 07:26:41;;;;;;;10.98;7.57;;;25.00;84.20;;;;;;5052017;28;20128;-50
2022/08/14 07:29:08;;;;;;;10.07;7.43;;;25.10;83.50;;;;;;5033559;28;20059;-51
2022/08/14 07:31:35;;;;;;;8.75;7.18;;;25.20;83.20;;;;;;5051969;28;20072;-50
2022/08/14 07:34:02;;;;;;;8.68;7.10;;;25.30;83.00;;;;;;5047264;28;20436;-42
2022/08/14 07:36:28;;;;;;;11.10;7.18;;;25.50;82.80;;;;;;5033390;28;20138;-47
2022/08/14 07:38:57;;;;;;;8.82;6.55;;;25.60;81.80;;;;;;5052548;28;20049;-48
2022/08/14 07:41:24;;;;;;;9.43;6.88;;;25.70;81.50;;;;;;5051012;28;20052;-47
2022/08/14 07:43:50;;;;;;;10.32;6.45;;;25.90;81.10;;;;;;5047573;28;20072;-46
2022/08/14 07:46:17;;;;;;;11.43;6.47;;;26.00;81.20;;;;;;5045486;28;21563;-41
2022/08/14 07:48:44;;;;;;;7.10;6.35;;;26.10;80.10;;;;;;5050150;28;20573;-42
2022/08/14 07:51:11;;;;;;;11.02;6.97;;;26.30;79.40;;;;;;5029077;28;20110;-46
2022/08/14 07:53:38;;;;;;;12.13;6.30;;;26.40;79.10;;;;;;5053401;28;20140;-46
2022/08/14 07:56:06;;;;;;;8.57;6.10;;;26.50;78.10;;;;;;5030492;28;20148;-49
2022/08/14 07:58:33;;;;;;;9.95;5.85;;;26.70;78.30;;;;;;5049266;28;20095;-46
2022/08/14 08:01:01;;;;;;;9.65;6.63;;;26.70;77.80;;;;;;5052063;28;20045;-45
2022/08/14 08:03:28;;;;;;;7.38;6.53;;;26.90;77.40;;;;;;5046476;28;20041;-44
2022/08/14 08:05:54;;;;;;;8.32;5.90;;;27.00;76.60;;;;;;5032485;28;20171;-46
2022/08/14 08:08:21;;;;;;;8.02;6.25;;;27.10;76.20;;;;;;5049898;28;20088;-48
2022/08/14 08:10:48;;;;;;;9.32;7.00;;;27.20;75.70;;;;;;5037351;28;20124;-51
2022/08/14 08:13:17;;;;;;;9.10;6.25;;;27.30;75.60;;;;;;5055314;28;20060;-46
2022/08/14 08:15:45;;;;;;;9.35;6.15;;;27.40;74.80;;;;;;5055592;28;20106;-45
2022/08/14 08:18:13;;;;;;;11.73;6.22;;;27.50;74.30;;;;;;5048455;28;20107;-39
2022/08/14 08:20:42;;;;;;;8.30;6.00;;;27.60;74.00;;;;;;5054249;28;20053;-46
2022/08/14 08:23:08;;;;;;;8.20;5.60;;;27.70;73.80;;;;;;5055130;28;20037;-48
2022/08/14 08:25:37;;;;;;;7.40;5.88;;;27.80;74.20;;;;;;5053327;28;20063;-45
2022/08/14 08:28:07;;;;;;;8.77;5.90;;;27.90;72.80;;;;;;5055691;28;20121;-45
2022/08/14 08:30:36;;;;;;;11.18;6.00;;;28.10;73.50;;;;;;5055663;28;20566;-43
2022/08/14 08:33:04;;;;;;;9.32;5.50;;;28.20;72.40;;;;;;5032438;28;20045;-52
2022/08/14 08:35:32;;;;;;;5.70;5.20;;;28.30;72.00;;;;;;5049916;28;20037;-43
2022/08/14 08:38:02;;;;;;;8.43;5.95;;;28.40;72.40;;;;;;5036935;28;20095;-49
2022/08/14 08:40:30;;;;;;;6.28;5.68;;;28.50;71.40;;;;;;5050317;28;20049;-46
2022/08/14 08:42:57;;;;;;;6.95;6.00;;;28.60;71.20;;;;;;5050591;28;20055;-40
2022/08/14 08:45:24;;;;;;;7.80;5.80;;;28.70;70.80;;;;;;5027952;28;20572;-42
2022/08/14 08:47:52;;;;;;;9.25;5.65;;;28.70;70.20;;;;;;5053754;28;20052;-48
2022/08/14 08:50:21;;;;;;;8.73;5.60;;;28.70;70.50;;;;;;5036474;28;20568;-49
2022/08/14 08:52:52;;;;;;;7.72;5.38;;;28.80;69.70;;;;;;5037301;28;20072;-47
2022/08/14 08:55:27;;;;;;;7.97;5.20;;;28.90;69.30;;;;;;5035541;28;20135;-47
2022/08/14 08:57:55;;;;;;;8.07;5.22;;;28.90;69.00;;;;;;5051143;28;20124;-42
2022/08/14 09:00:22;;;;;;;6.57;4.78;;;29.00;69.20;;;;;;5037893;28;20063;-44
2022/08/14 09:02:58;;;;;;;7.97;5.03;;;29.20;68.30;;;;;;5050716;28;20084;-48
2022/08/14 09:05:25;;;;;;;8.05;5.32;;;29.40;67.90;;;;;;5052631;28;20133;-46
2022/08/14 09:07:52;;;;;;;5.80;4.97;;;29.50;67.90;;;;;;5053632;28;20073;-51
2022/08/14 09:10:19;;;;;;;9.02;5.30;;;29.70;66.70;;;;;;5054693;28;20079;-49
2022/08/14 09:12:46;;;;;;;9.40;5.43;;;29.70;66.50;;;;;;5054432;28;20057;-50
2022/08/14 09:15:28;;;;;;;7.00;4.60;;;29.90;66.00;;;;;;5054973;28;20049;-46
2022/08/14 09:17:57;;;;;;;7.60;5.20;;;30.00;66.20;;;;;;5036185;28;20080;-49
2022/08/14 09:20:25;;;;;;;5.63;5.13;;;30.00;65.50;;;;;;5036369;28;20118;-51
2022/08/14 09:22:52;;;;;;;9.18;5.10;;;30.00;65.30;;;;;;5053260;28;20531;-52
2022/08/14 09:25:19;;;;;;;12.05;5.80;;;30.00;64.80;;;;;;5039136;28;20114;-50
2022/08/14 09:27:45;;;;;;;8.25;5.45;;;30.10;65.30;;;;;;5053844;28;20124;-50
2022/08/14 09:30:12;;;;;;;6.65;5.50;;;30.20;64.60;;;;;;5037042;28;20081;-49
2022/08/14 09:32:42;;;;;;;8.00;5.05;;;30.30;63.80;;;;;;5036903;28;20139;-50
2022/08/14 09:35:15;;;;;;;5.47;4.53;;;30.40;63.80;;;;;;5053027;28;20127;-48
2022/08/14 09:37:48;;;;;;;9.23;5.07;;;30.50;63.70;;;;;;5048577;28;20550;-53
2022/08/14 09:40:19;;;;;;;5.35;4.47;;;30.50;63.20;;;;;;5036133;28;20540;-51
2022/08/14 09:42:51;;;;;;;7.72;4.85;;;30.60;63.10;;;;;;5054699;28;20507;-53
2022/08/14 09:45:18;;;;;;;7.90;5.10;;;30.70;62.50;;;;;;5046145;28;20135;-51
2022/08/14 09:47:47;;;;;;;5.95;5.45;;;30.70;62.40;;;;;;5049611;28;20049;-51
2022/08/14 09:50:23;;;;;;;6.75;5.47;;;30.80;62.70;;;;;;5026213;28;20515;-49
2022/08/14 09:52:51;;;;;;;7.47;5.35;;;31.00;62.30;;;;;;5054537;28;20057;-47
2022/08/14 09:55:19;;;;;;;7.60;5.07;;;31.20;61.90;;;;;;5054009;28;20063;-49
2022/08/14 10:00:43;;;;;;;5.75;5.07;;;31.30;61.20;;;;;;5033797;28;20049;-50
2022/08/14 10:03:09;;;;;;;5.95;5.20;;;31.40;60.90;;;;;;5029533;28;20136;-50
2022/08/14 10:05:38;;;;;;;8.32;5.72;;;31.50;61.00;;;;;;5048130;28;20045;-50
2022/08/14 10:08:05;;;;;;;6.35;5.28;;;31.60;60.50;;;;;;5052352;28;20124;-50
2022/08/14 10:10:33;;;;;;;7.15;5.65;;;31.70;60.50;;;;;;5050645;28;20041;-42
2022/08/14 10:13:01;;;;;;;5.32;4.82;;;31.80;60.40;;;;;;5053599;28;20505;-51
2022/08/14 10:15:29;;;;;;;5.65;5.00;;;31.80;60.00;;;;;;5047391;28;20052;-47
2022/08/14 10:18:09;;;;;;;5.95;4.40;;;31.80;59.10;;;;;;5052538;28;20860;-49
2022/08/14 10:20:41;;;;;;;5.25;4.75;;;31.90;58.50;;;;;;5053163;28;20114;-50
2022/08/14 10:23:15;;;;;;;5.20;4.70;;;31.90;58.30;;;;;;5035896;28;20528;-47
2022/08/14 10:25:43;;;;;;;5.63;5.13;;;31.90;58.40;;;;;;5035202;28;20044;-49
2022/08/14 10:28:14;;;;;;;5.90;4.85;;;31.90;58.60;;;;;;5032644;28;20409;-51
2022/08/14 10:30:41;;;;;;;;;;;32.00;58.50;;;;;;5053302;28;20459;-53
2022/08/14 10:33:08;;;;;;;4.90;4.50;;;32.00;58.90;;;;;;5050990;28;19982;-50
2022/08/14 10:35:43;;;;;;;5.20;4.43;;;32.10;58.30;;;;;;5041868;28;20107;-52
2022/08/14 10:38:10;;;;;;;6.15;4.90;;;32.10;57.30;;;;;;5016169;28;20085;-52
2022/08/14 10:40:37;;;;;;;5.88;4.50;;;32.10;57.70;;;;;;5033968;28;20053;-51
2022/08/14 10:43:15;;;;;;;8.15;4.60;;;32.10;57.80;;;;;;5034123;28;20413;-51
2022/08/14 10:45:41;;;;;;;10.63;4.82;;;32.20;58.10;;;;;;5033913;28;20540;-52
2022/08/14 10:48:16;;;;;;;7.07;4.50;;;32.40;57.80;;;;;;5050935;28;20464;-53
2022/08/14 10:50:50;;;;;;;4.80;4.28;;;32.40;57.60;;;;;;5053602;28;20045;-52
2022/08/14 10:53:27;;;;;;;5.50;4.57;;;32.50;56.80;;;;;;5036101;28;20052;-47
2022/08/14 10:55:58;;;;;;;5.47;4.82;;;32.60;56.20;;;;;;5050078;28;20099;-53
2022/08/14 10:58:28;;;;;;;5.18;4.68;;;32.60;55.90;;;;;;5052939;28;20131;-51
2022/08/14 11:00:56;;;;;;;5.85;4.03;;;32.60;56.10;;;;;;5051971;28;20049;-52
2022/08/14 11:03:24;;;;;;;6.90;4.57;;;32.60;55.90;;;;;;5034711;28;20043;-52
2022/08/14 11:05:52;;;;;;;7.03;5.10;;;32.70;56.00;;;;;;5053512;28;20435;-52
2022/08/14 11:08:31;;;;;;;7.28;5.00;;;32.80;56.50;;;;;;5035494;28;20485;-54
2022/08/14 11:11:00;;;;;;;6.82;4.93;;;32.90;56.50;;;;;;5053220;28;20114;-53
2022/08/14 11:13:28;;;;;;;7.13;4.95;;;33.00;55.80;;;;;;5050073;28;20120;-52
2022/08/14 11:15:56;;;;;;;7.78;4.90;;;33.10;54.80;;;;;;5050420;28;20124;-47
2022/08/14 11:18:23;;;;;;;8.05;5.32;;;33.20;55.40;;;;;;5042131;28;20751;-51
2022/08/14 11:20:53;;;;;;;7.88;5.53;;;33.20;54.80;;;;;;5050429;28;20106;-48
2022/08/14 11:23:21;;;;;;;5.70;5.17;;;33.20;54.40;;;;;;5032427;28;20385;-45
2022/08/14 11:25:48;;;;;;;8.38;5.00;;;33.30;53.70;;;;;;5048982;28;20404;-51
2022/08/14 11:28:15;;;;;;;7.95;5.38;;;33.30;54.70;;;;;;5049318;28;20049;-45
2022/08/14 11:30:43;;;;;;;5.38;4.80;;;33.40;55.50;;;;;;5034039;28;20124;-45
2022/08/14 11:33:10;;;;;;;5.30;4.80;;;33.40;54.00;;;;;;5032325;28;20052;-53
2022/08/14 11:35:37;;;;;;;5.47;4.78;;;33.40;54.00;;;;;;5033933;28;20136;-50
2022/08/14 11:38:06;;;;;;;5.28;4.45;;;33.40;53.10;;;;;;5052625;28;20049;-51
2022/08/14 11:40:34;;;;;;;9.65;4.88;;;33.50;53.00;;;;;;5034161;28;20135;-53
2022/08/14 11:43:01;;;;;;;6.03;4.40;;;33.60;52.70;;;;;;5034176;28;20395;-51
2022/08/14 11:45:33;;;;;;;5.07;4.68;;;33.70;53.30;;;;;;5033412;28;20128;-53
2022/08/14 11:48:00;;;;;;;6.28;4.47;;;33.90;53.80;;;;;;5051668;28;20044;-52
2022/08/14 11:50:29;;;;;;;4.78;4.38;;;34.10;53.80;;;;;;5049854;28;20124;-48
2022/08/14 11:52:56;;;;;;;6.20;4.65;;;34.00;52.30;;;;;;5034678;28;20079;-48
2022/08/14 11:55:25;;;;;;;6.63;4.50;;;34.00;52.20;;;;;;5051622;28;20079;-48
2022/08/14 11:58:00;;;;;;;5.85;4.93;;;33.90;53.10;;;;;;5049290;28;20048;-53
2022/08/14 12:00:27;;;;;;;5.30;4.50;;;34.10;53.10;;;;;;5049373;28;20048;-49
2022/08/14 12:02:55;;;;;;;8.15;5.00;;;34.20;52.90;;;;;;5051245;28;20132;-51
2022/08/14 12:05:35;;;;;;;6.47;5.35;;;34.30;52.60;;;;;;5052461;28;20060;-49
2022/08/14 12:08:06;;;;;;;8.80;4.47;;;34.50;53.20;;;;;;5052607;28;20045;-52
2022/08/14 12:10:34;;;;;;;6.13;4.90;;;34.60;52.10;;;;;;5051085;28;20056;-49
2022/08/14 12:13:10;;;;;;;5.88;4.63;;;34.80;51.00;;;;;;5050957;28;20049;-51
2022/08/14 12:15:37;;;;;;;7.60;4.82;;;34.70;51.10;;;;;;5051232;28;20068;-51
2022/08/14 12:18:05;;;;;;;5.25;4.70;;;34.70;51.00;;;;;;5032019;28;20052;-44
2022/08/14 12:20:33;;;;;;;7.68;4.93;;;34.70;50.30;;;;;;5034374;28;20129;-54
2022/08/14 12:23:01;;;;;;;4.93;4.43;;;34.60;50.60;;;;;;5052201;28;20085;-53
2022/08/14 12:25:28;;;;;;;5.15;4.65;;;34.60;50.30;;;;;;5050933;28;20120;-49
2022/08/14 12:27:57;;;;;;;4.88;4.45;;;34.60;50.20;;;;;;5050654;28;20091;-50
2022/08/14 12:30:31;;;;;;;5.38;4.78;;;34.60;49.90;;;;;;5034166;28;20867;-54
2022/08/14 12:32:58;;;;;;;6.40;4.90;;;34.40;49.90;;;;;;5052050;28;20048;-53
2022/08/14 12:35:36;;;;;;;5.35;4.85;;;34.30;50.30;;;;;;5027356;28;20049;-48
2022/08/14 12:38:03;;;;;;;6.47;4.63;;;34.30;50.70;;;;;;5034301;28;20106;-51
2022/08/14 12:40:30;;;;;;;8.00;5.00;;;34.40;50.90;;;;;;5051195;28;20049;-49
2022/08/14 12:43:02;;;;;;;4.70;4.30;;;34.50;50.30;;;;;;5049155;28;20048;-49
2022/08/14 12:45:33;;;;;;;6.22;4.55;;;34.60;50.00;;;;;;5050942;28;20463;-49
2022/08/14 12:48:00;;;;;;;6.25;5.00;;;34.70;50.30;;;;;;5051442;28;20049;-50
2022/08/14 12:50:35;;;;;;;8.93;4.95;;;34.80;49.60;;;;;;5051282;28;20085;-48
2022/08/14 12:53:02;;;;;;;8.25;4.80;;;34.70;49.60;;;;;;5033639;28;20136;-51
2022/08/14 12:55:34;;;;;;;5.43;4.28;;;34.60;49.80;;;;;;5034093;28;20103;-49
2022/08/14 12:58:04;;;;;;;6.40;4.18;;;34.70;50.40;;;;;;5048611;28;20085;-52
2022/08/14 13:00:31;;;;;;;5.53;4.37;;;34.90;49.40;;;;;;5054906;28;20052;-52
2022/08/14 13:02:58;;;;;;;4.55;3.65;;;34.90;49.20;;;;;;5054444;28;20378;-52
2022/08/14 13:05:25;;;;;;;4.88;4.28;;;34.90;49.10;;;;;;5053719;28;20057;-52
2022/08/14 13:07:52;;;;;;;4.57;4.18;;;34.90;48.70;;;;;;5053817;28;20044;-48